This is the latest recevied weather packets stored in our database for station/object 9W2SSS-1. If no packets are shown the sender has not sent any weather packets the latest 10 day(s).
| Time | Temp. | Humidity | Pressure | Rain* | Wind** | Luminosity | Snow |
|---|---|---|---|---|---|---|---|
| 1778269420 | 28.89° C | 71% | 1007.3 hPa | - | - | - | - |
| 1778268219 | 28.89° C | 72% | 1007.3 hPa | - | - | - | - |
| 1778267019 | 28.89° C | 71% | 1007.6 hPa | - | - | - | - |
| 1778265819 | 28.89° C | 71% | 1007.8 hPa | - | - | - | - |
| 1778264619 | 28.89° C | 70% | 1008 hPa | - | - | - | - |
| 1778263419 | 28.89° C | 69% | 1008.4 hPa | - | - | - | - |
| 1778262219 | 28.89° C | 69% | 1008.6 hPa | - | - | - | - |
| 1778261019 | 28.89° C | 68% | 1009.1 hPa | - | - | - | - |
| 1778259819 | 28.89° C | 67% | 1009.4 hPa | - | - | - | - |
| 1778258619 | 28.89° C | 66% | 1009.7 hPa | - | - | - | - |
| 1778257419 | 28.33° C | 66% | 1010.1 hPa | - | - | - | - |
| 1778256219 | 27.78° C | 58% | 1010.2 hPa | - | - | - | - |
| 1778255019 | 27.78° C | 57% | 1010.4 hPa | - | - | - | - |
| 1778253819 | 28.33° C | 60% | 1010.4 hPa | - | - | - | - |
| 1778252619 | 28.33° C | 60% | 1010.4 hPa | - | - | - | - |
| 1778251419 | 28.89° C | 61% | 1010.4 hPa | - | - | - | - |
| 1778250219 | 28.89° C | 61% | 1010.3 hPa | - | - | - | - |
| 1778249019 | 29.44° C | 62% | 1010.1 hPa | - | - | - | - |
| 1778247819 | 30° C | 66% | 1010 hPa | - | - | - | - |
| 1778246619 | 30° C | 67% | 1009.6 hPa | - | - | - | - |
| 1778245418 | 30° C | 68% | 1009.4 hPa | - | - | - | - |
| 1778244218 | 30° C | 68% | 1009.2 hPa | - | - | - | - |
| 1778243018 | 30° C | 66% | 1009 hPa | - | - | - | - |
| 1778241818 | 30° C | 66% | 1008.6 hPa | - | - | - | - |
| 1778240618 | 30° C | 67% | 1008.1 hPa | - | - | - | - |
* Rain since midnight (hover to see other rain measurements)
** Current wind speed in m/s (hover to see current wind gust speed)